createdAt,value
2016-08-31T00:00:06.771Z,16.51
2016-08-31T00:01:06.747Z,16.51
2016-08-31T00:02:07.292Z,16.41
2016-08-31T00:03:06.704Z,16.47
2016-08-31T00:04:06.679Z,16.39
2016-08-31T00:05:07.347Z,16.39
2016-08-31T00:06:06.635Z,16.42
2016-08-31T00:07:06.614Z,16.35
2016-08-31T00:08:06.591Z,16.35
2016-08-31T00:09:06.569Z,16.36
2016-08-31T00:10:07.234Z,16.41
2016-08-31T00:11:06.523Z,16.35
2016-08-31T00:12:06.497Z,16.26
2016-08-31T00:13:06.475Z,16.39
2016-08-31T00:14:06.456Z,16.29
2016-08-31T00:15:06.435Z,16.33
2016-08-31T00:16:06.410Z,16.29
2016-08-31T00:17:06.389Z,16.36
2016-08-31T00:18:06.363Z,16.29
2016-08-31T00:19:06.343Z,16.33
2016-08-31T00:20:06.321Z,16.28
2016-08-31T00:21:06.296Z,16.33
2016-08-31T00:22:06.276Z,16.21
2016-08-31T00:23:06.252Z,16.21
2016-08-31T00:24:06.229Z,16.15
2016-08-31T00:25:06.467Z,16.2
2016-08-31T00:26:06.183Z,16.17
2016-08-31T00:27:06.162Z,16.28
2016-08-31T00:28:06.140Z,16.1
2016-08-31T00:29:06.124Z,16.05
2016-08-31T00:30:09.208Z,16.1
2016-08-31T00:31:06.069Z,16.05
2016-08-31T00:32:06.050Z,16.02
2016-08-31T00:33:06.023Z,16.05
2016-08-31T00:34:06.003Z,16.08
2016-08-31T00:35:05.982Z,16.1
2016-08-31T00:36:05.960Z,15.98
2016-08-31T00:37:05.937Z,16.08
2016-08-31T00:38:05.914Z,16
2016-08-31T00:39:05.891Z,16
2016-08-31T00:40:05.870Z,15.98
2016-08-31T00:41:05.846Z,15.88
2016-08-31T00:42:05.823Z,15.9
2016-08-31T00:43:05.800Z,15.94
2016-08-31T00:44:05.774Z,15.88
2016-08-31T00:45:05.754Z,15.88
2016-08-31T00:46:05.730Z,15.9
2016-08-31T00:47:05.706Z,15.88
2016-08-31T00:48:05.687Z,15.86
2016-08-31T00:49:05.663Z,15.79
2016-08-31T00:50:06.163Z,15.82
2016-08-31T00:51:06.313Z,15.88
2016-08-31T00:52:05.592Z,15.82
2016-08-31T00:53:05.572Z,15.73
2016-08-31T00:54:05.548Z,15.76
2016-08-31T00:55:05.526Z,15.82
2016-08-31T00:56:05.503Z,15.73
2016-08-31T00:57:05.480Z,15.67
2016-08-31T00:58:05.456Z,15.73
2016-08-31T00:59:05.434Z,15.7
2016-08-31T01:00:05.410Z,15.7
2016-08-31T01:01:05.390Z,15.72
2016-08-31T01:02:05.367Z,15.65
2016-08-31T01:03:05.349Z,15.61
2016-08-31T01:04:05.368Z,15.67
2016-08-31T01:05:05.305Z,15.57
2016-08-31T01:06:05.273Z,15.58
2016-08-31T01:07:05.250Z,15.54
2016-08-31T01:08:05.224Z,15.58
2016-08-31T01:09:05.204Z,15.62
2016-08-31T01:10:05.181Z,15.61
2016-08-31T01:11:05.158Z,15.57
2016-08-31T01:12:05.134Z,15.58
2016-08-31T01:13:05.109Z,15.54
2016-08-31T01:14:05.089Z,15.57
2016-08-31T01:15:05.064Z,15.49
2016-08-31T01:16:05.039Z,15.49
2016-08-31T01:17:05.020Z,15.47
2016-08-31T01:18:04.999Z,15.52
2016-08-31T01:19:04.974Z,15.44
2016-08-31T01:20:05.001Z,15.46
2016-08-31T01:21:04.925Z,15.42
2016-08-31T01:22:04.911Z,15.46
2016-08-31T01:23:04.882Z,15.47
2016-08-31T01:24:04.857Z,15.36
2016-08-31T01:25:04.834Z,15.39
2016-08-31T01:26:04.813Z,15.35
2016-08-31T01:27:04.790Z,15.33
2016-08-31T01:28:04.764Z,15.24
2016-08-31T01:29:04.739Z,15.27
2016-08-31T01:30:04.720Z,15.28
2016-08-31T01:31:04.696Z,15.28
2016-08-31T01:32:04.673Z,15.33
2016-08-31T01:33:04.656Z,15.19
2016-08-31T01:34:04.625Z,15.15
2016-08-31T01:35:04.610Z,15.24
2016-08-31T01:36:04.578Z,15.21
2016-08-31T01:37:04.557Z,15.18
2016-08-31T01:38:04.533Z,15.22
2016-08-31T01:39:04.510Z,15.15
2016-08-31T01:40:04.487Z,15.24
2016-08-31T01:41:04.461Z,15.14
2016-08-31T01:42:04.437Z,15.18
2016-08-31T01:43:04.416Z,15.09
2016-08-31T01:44:04.392Z,15.1
2016-08-31T01:45:04.370Z,14.97
2016-08-31T01:46:04.347Z,15.09
2016-08-31T01:47:04.320Z,14.94
2016-08-31T01:48:04.307Z,14.99
2016-08-31T01:49:04.282Z,14.97
2016-08-31T01:50:04.251Z,14.91
2016-08-31T01:51:04.229Z,14.97
2016-08-31T01:52:04.205Z,14.86
2016-08-31T01:53:04.181Z,14.88
2016-08-31T01:54:04.157Z,14.91
2016-08-31T01:55:04.133Z,14.94
2016-08-31T01:56:04.111Z,14.92
2016-08-31T01:57:04.087Z,14.92
2016-08-31T01:58:04.065Z,14.91
2016-08-31T01:59:04.045Z,14.88
2016-08-31T02:00:04.014Z,14.92
2016-08-31T02:01:03.992Z,14.91
2016-08-31T02:02:03.965Z,14.84
2016-08-31T02:03:03.943Z,14.85
2016-08-31T02:04:03.921Z,14.81
2016-08-31T02:05:03.899Z,14.72
2016-08-31T02:06:03.875Z,14.79
2016-08-31T02:07:03.851Z,14.79
2016-08-31T02:08:03.825Z,14.78
2016-08-31T02:09:03.839Z,14.77
2016-08-31T02:10:04.974Z,14.69
2016-08-31T02:11:03.754Z,14.66
2016-08-31T02:12:03.733Z,14.68
2016-08-31T02:13:03.710Z,14.65
2016-08-31T02:14:03.686Z,14.68
2016-08-31T02:15:03.662Z,14.63
2016-08-31T02:16:03.634Z,14.58
2016-08-31T02:17:03.614Z,14.58
2016-08-31T02:18:03.588Z,14.58
2016-08-31T02:19:03.564Z,14.51
2016-08-31T02:20:03.544Z,14.55
2016-08-31T02:21:03.524Z,14.45
2016-08-31T02:22:03.495Z,14.5
2016-08-31T02:23:03.475Z,14.47
2016-08-31T02:24:03.445Z,14.53
2016-08-31T02:25:03.435Z,14.5
2016-08-31T02:26:03.399Z,14.47
2016-08-31T02:27:03.372Z,14.45
2016-08-31T02:28:03.353Z,14.47
2016-08-31T02:29:03.329Z,14.45
2016-08-31T02:30:03.306Z,14.33
2016-08-31T02:31:03.277Z,14.41
2016-08-31T02:32:03.254Z,14.35
2016-08-31T02:33:03.233Z,14.37
2016-08-31T02:34:03.214Z,14.35
2016-08-31T02:35:03.185Z,14.35
2016-08-31T02:36:03.162Z,14.37
2016-08-31T02:37:03.133Z,14.44
2016-08-31T02:38:03.113Z,14.4
2016-08-31T02:39:03.088Z,14.36
2016-08-31T02:40:03.063Z,14.37
2016-08-31T02:41:03.042Z,14.32
2016-08-31T02:42:03.029Z,14.37
2016-08-31T02:43:02.993Z,14.32
2016-08-31T02:44:02.976Z,14.32
2016-08-31T02:45:02.942Z,14.3
2016-08-31T02:46:02.925Z,14.33
2016-08-31T02:47:02.902Z,14.29
2016-08-31T02:48:02.870Z,14.25
2016-08-31T02:49:02.849Z,14.26
2016-08-31T02:50:02.826Z,14.3
2016-08-31T02:51:02.815Z,14.2
2016-08-31T02:52:02.777Z,14.26
2016-08-31T02:53:02.755Z,14.23
2016-08-31T02:54:02.729Z,14.23
2016-08-31T02:55:02.704Z,14.25
2016-08-31T02:56:02.679Z,14.18
2016-08-31T02:57:02.657Z,14.2
2016-08-31T02:58:02.634Z,14.25
2016-08-31T02:59:02.611Z,14.2
2016-08-31T03:00:02.586Z,14.17
2016-08-31T03:01:02.559Z,14.22
2016-08-31T03:02:02.538Z,14.15
2016-08-31T03:03:02.514Z,14.15
2016-08-31T03:04:02.486Z,14.11
2016-08-31T03:05:02.467Z,14.14
2016-08-31T03:06:02.440Z,14.12
2016-08-31T03:07:02.414Z,14.12
2016-08-31T03:08:02.392Z,14.12
2016-08-31T03:09:02.367Z,14.14
2016-08-31T03:10:02.350Z,14.14
2016-08-31T03:11:02.321Z,14.1
2016-08-31T03:12:02.301Z,14.12
2016-08-31T03:13:02.275Z,14.07
2016-08-31T03:14:02.947Z,14.08
2016-08-31T03:15:02.221Z,14.08
2016-08-31T03:16:02.201Z,14.03
2016-08-31T03:17:02.181Z,14.05
2016-08-31T03:18:02.155Z,14.07
2016-08-31T03:19:02.133Z,14.05
2016-08-31T03:20:02.102Z,14.05
2016-08-31T03:21:02.080Z,14.07
2016-08-31T03:22:02.054Z,14.03
2016-08-31T03:23:02.034Z,14
2016-08-31T03:24:02.005Z,13.97
2016-08-31T03:25:01.985Z,14
2016-08-31T03:26:01.958Z,14.05
2016-08-31T03:27:01.933Z,14.03
2016-08-31T03:28:01.910Z,13.99
2016-08-31T03:29:01.886Z,14.04
2016-08-31T03:30:01.864Z,14.04
2016-08-31T03:31:01.836Z,14.05
2016-08-31T03:32:01.812Z,14.04
2016-08-31T03:33:01.789Z,14.05
2016-08-31T03:34:01.768Z,13.99
2016-08-31T03:35:01.752Z,14.07
2016-08-31T03:36:01.715Z,14.04
2016-08-31T03:37:01.739Z,13.95
2016-08-31T03:38:01.665Z,14.03
2016-08-31T03:39:01.643Z,14.05
2016-08-31T03:40:01.624Z,14.05
2016-08-31T03:41:01.590Z,14.03
2016-08-31T03:42:01.570Z,14
2016-08-31T03:43:01.545Z,14.1
2016-08-31T03:44:01.521Z,14.03
2016-08-31T03:45:01.497Z,14.07
2016-08-31T03:46:01.474Z,14.03
2016-08-31T03:47:01.449Z,14.03
2016-08-31T03:48:01.423Z,14.04
2016-08-31T03:49:01.396Z,13.99
2016-08-31T03:50:01.381Z,13.99
2016-08-31T03:51:01.350Z,13.97
2016-08-31T03:52:01.324Z,14.07
2016-08-31T03:53:01.301Z,14.03
2016-08-31T03:54:01.279Z,13.96
2016-08-31T03:55:01.250Z,14.03
2016-08-31T03:56:01.230Z,13.95
2016-08-31T03:57:01.203Z,13.99
2016-08-31T03:58:01.178Z,13.97
2016-08-31T03:59:01.155Z,13.97
2016-08-31T04:00:01.132Z,13.95
2016-08-31T04:01:01.105Z,13.99
2016-08-31T04:02:01.084Z,14
2016-08-31T04:03:01.056Z,13.96
2016-08-31T04:04:01.032Z,13.97
2016-08-31T04:05:01.013Z,13.95
2016-08-31T04:06:00.985Z,13.93
2016-08-31T04:07:00.958Z,13.96
2016-08-31T04:08:00.939Z,13.92
2016-08-31T04:09:00.913Z,13.93
2016-08-31T04:10:00.894Z,13.9
2016-08-31T04:11:00.872Z,13.87
2016-08-31T04:12:00.838Z,13.96
2016-08-31T04:13:00.818Z,13.93
2016-08-31T04:14:00.800Z,14
2016-08-31T04:15:00.763Z,13.95
2016-08-31T04:16:00.742Z,13.99
2016-08-31T04:17:00.718Z,14
2016-08-31T04:18:00.690Z,13.95
2016-08-31T04:19:00.676Z,13.97
2016-08-31T04:20:00.642Z,13.95
2016-08-31T04:21:00.617Z,13.97
2016-08-31T04:22:00.596Z,14.03
2016-08-31T04:23:00.572Z,14.04
2016-08-31T04:24:00.551Z,14
2016-08-31T04:25:00.524Z,13.93
2016-08-31T04:26:00.569Z,14.04
2016-08-31T04:27:00.472Z,13.99
2016-08-31T04:28:00.449Z,13.95
2016-08-31T04:29:00.427Z,13.95
2016-08-31T04:30:00.402Z,13.99
2016-08-31T04:31:00.383Z,13.97
2016-08-31T04:32:00.357Z,13.99
2016-08-31T04:33:00.329Z,13.93
2016-08-31T04:34:00.406Z,14.03
2016-08-31T04:35:00.279Z,13.97
2016-08-31T04:36:00.254Z,13.97
2016-08-31T04:37:00.231Z,13.96
2016-08-31T04:38:00.205Z,13.92
2016-08-31T04:39:00.181Z,14.04
2016-08-31T04:40:00.158Z,13.95
2016-08-31T04:41:00.150Z,13.97
2016-08-31T04:42:00.109Z,13.97
2016-08-31T04:43:00.085Z,14.05
2016-08-31T04:44:00.064Z,13.99
2016-08-31T04:45:00.036Z,13.97
2016-08-31T04:46:00.018Z,14.05
2016-08-31T04:46:59.985Z,13.93
2016-08-31T04:47:59.975Z,13.95
2016-08-31T04:48:59.940Z,14.04
2016-08-31T04:49:59.919Z,14.05
2016-08-31T04:50:59.893Z,14.07
2016-08-31T04:51:59.867Z,14.08
2016-08-31T04:52:59.839Z,14.05
2016-08-31T04:53:59.817Z,14.07
2016-08-31T04:54:59.793Z,14.08
2016-08-31T04:55:59.768Z,14.15
2016-08-31T04:56:59.745Z,14.11
2016-08-31T04:57:59.721Z,14.12
2016-08-31T04:58:59.694Z,14.12
2016-08-31T04:59:59.674Z,14.14
2016-08-31T05:00:59.649Z,14.11
2016-08-31T05:01:59.636Z,14.12
2016-08-31T05:02:59.614Z,14.1
2016-08-31T05:03:59.576Z,14.1
2016-08-31T05:04:59.552Z,14.08
2016-08-31T05:05:59.529Z,14.12
2016-08-31T05:06:59.503Z,14.18
2016-08-31T05:07:59.480Z,14.23
2016-08-31T05:08:59.455Z,14.1
2016-08-31T05:09:59.428Z,14.18
2016-08-31T05:10:59.412Z,14.18
2016-08-31T05:11:59.384Z,14.22
2016-08-31T05:12:59.356Z,14.26
2016-08-31T05:13:59.335Z,14.17
2016-08-31T05:14:59.311Z,14.25
2016-08-31T05:15:59.285Z,14.2
2016-08-31T05:16:59.264Z,14.23
2016-08-31T05:17:59.240Z,14.29
2016-08-31T05:18:59.211Z,14.35
2016-08-31T05:19:59.198Z,14.35
2016-08-31T05:20:59.167Z,14.36
2016-08-31T05:21:59.140Z,14.41
2016-08-31T05:22:59.120Z,14.37
2016-08-31T05:23:59.093Z,14.36
2016-08-31T05:24:59.068Z,14.37
2016-08-31T05:25:59.045Z,14.36
2016-08-31T05:26:59.026Z,14.35
2016-08-31T05:27:59.003Z,14.36
2016-08-31T05:28:58.977Z,14.43
2016-08-31T05:29:58.960Z,14.47
2016-08-31T05:30:58.926Z,14.47
2016-08-31T05:31:58.906Z,14.45
2016-08-31T05:32:58.882Z,14.48
2016-08-31T05:33:58.857Z,14.45
2016-08-31T05:34:58.835Z,14.51
2016-08-31T05:35:58.808Z,14.51
2016-08-31T05:36:58.787Z,14.55
2016-08-31T05:37:58.761Z,14.45
2016-08-31T05:38:58.737Z,14.45
2016-08-31T05:39:58.725Z,14.51
2016-08-31T05:40:58.690Z,14.55
2016-08-31T05:41:58.667Z,14.51
2016-08-31T05:42:58.644Z,14.53
2016-08-31T05:43:58.620Z,14.58
2016-08-31T05:44:58.595Z,14.65
2016-08-31T05:45:59.282Z,14.6
2016-08-31T05:46:58.553Z,14.62
2016-08-31T05:47:58.523Z,14.68
2016-08-31T05:48:58.504Z,14.66
2016-08-31T05:49:58.480Z,14.73
2016-08-31T05:50:58.459Z,14.7
2016-08-31T05:51:58.432Z,14.84
2016-08-31T05:52:59.102Z,14.73
2016-08-31T05:53:58.386Z,14.81
2016-08-31T05:54:58.365Z,14.89
2016-08-31T05:55:58.338Z,14.86
2016-08-31T05:56:58.316Z,14.89
2016-08-31T05:57:58.292Z,14.92
2016-08-31T05:58:58.267Z,14.89
2016-08-31T05:59:58.306Z,14.91
2016-08-31T06:00:58.224Z,14.92
2016-08-31T06:01:58.200Z,14.89
2016-08-31T06:02:58.174Z,15.1
2016-08-31T06:03:58.152Z,15.04
2016-08-31T06:04:58.132Z,15.06
2016-08-31T06:05:58.131Z,15.15
2016-08-31T06:06:58.083Z,15.11
2016-08-31T06:07:58.758Z,15.22
2016-08-31T06:08:58.034Z,15.19
2016-08-31T06:09:58.015Z,15.22
2016-08-31T06:10:57.989Z,15.18
2016-08-31T06:11:57.965Z,15.24
2016-08-31T06:12:57.943Z,15.29
2016-08-31T06:13:57.921Z,15.36
2016-08-31T06:14:57.902Z,15.43
2016-08-31T06:15:57.874Z,15.4
2016-08-31T06:16:57.855Z,15.44
2016-08-31T06:17:57.830Z,15.51
2016-08-31T06:18:57.807Z,15.57
2016-08-31T06:19:57.788Z,15.58
2016-08-31T06:20:57.763Z,15.55
2016-08-31T06:21:58.439Z,15.65
2016-08-31T06:22:57.719Z,15.62
2016-08-31T06:23:57.698Z,15.72
2016-08-31T06:24:57.670Z,15.72
2016-08-31T06:25:57.651Z,15.76
2016-08-31T06:26:57.633Z,15.86
2016-08-31T06:27:57.605Z,15.77
2016-08-31T06:28:57.590Z,15.77
2016-08-31T06:29:57.562Z,15.88
2016-08-31T06:30:57.537Z,15.9
2016-08-31T06:31:57.521Z,15.97
2016-08-31T06:32:57.498Z,16.12
2016-08-31T06:33:57.471Z,16.15
2016-08-31T06:34:57.449Z,16.16
2016-08-31T06:35:57.425Z,16.26
2016-08-31T06:36:57.404Z,16.16
2016-08-31T06:37:57.382Z,16.31
2016-08-31T06:38:57.363Z,16.31
2016-08-31T06:39:57.342Z,16.36
2016-08-31T06:40:58.165Z,16.38
2016-08-31T06:41:57.294Z,16.41
2016-08-31T06:42:57.273Z,16.49
2016-08-31T06:43:57.252Z,16.61
2016-08-31T06:44:57.229Z,16.57
2016-08-31T06:45:57.210Z,16.61
2016-08-31T06:46:57.198Z,16.72
2016-08-31T06:47:57.162Z,16.74
2016-08-31T06:48:57.145Z,16.87
2016-08-31T06:49:57.120Z,16.87
2016-08-31T06:50:57.097Z,16.96
2016-08-31T06:51:57.092Z,16.97
2016-08-31T06:52:57.058Z,16.97
2016-08-31T06:53:57.034Z,16.99
2016-08-31T06:54:57.015Z,17.06
2016-08-31T06:55:56.995Z,17.09
2016-08-31T06:56:56.973Z,17.16
2016-08-31T06:57:56.948Z,17.15
2016-08-31T06:58:56.925Z,17.29
2016-08-31T06:59:56.906Z,17.36
2016-08-31T07:00:57.587Z,17.48
2016-08-31T07:01:56.862Z,17.44
2016-08-31T07:02:57.234Z,17.48
2016-08-31T07:03:56.821Z,17.57
2016-08-31T07:04:56.798Z,17.57
2016-08-31T07:05:56.782Z,17.68
2016-08-31T07:06:56.759Z,17.7
2016-08-31T07:07:56.737Z,17.71
2016-08-31T07:08:57.415Z,17.78
2016-08-31T07:09:57.399Z,17.85
2016-08-31T07:10:56.679Z,18.08
2016-08-31T07:11:56.655Z,18.11
2016-08-31T07:12:56.635Z,18.29
2016-08-31T07:13:56.613Z,18.43
2016-08-31T07:14:56.597Z,18.52
2016-08-31T07:15:56.716Z,18.56
2016-08-31T07:16:56.558Z,18.74
2016-08-31T07:17:56.543Z,18.83
2016-08-31T07:18:56.519Z,19.12
2016-08-31T07:19:56.503Z,19.24
2016-08-31T07:20:56.485Z,19.39
2016-08-31T07:21:56.469Z,19.51
2016-08-31T07:22:56.448Z,19.64
2016-08-31T07:23:57.938Z,19.81
2016-08-31T07:24:56.418Z,19.96
2016-08-31T07:25:56.399Z,20.06
2016-08-31T07:26:56.386Z,20.22
2016-08-31T07:27:56.364Z,20.26
2016-08-31T07:28:56.349Z,20.37
2016-08-31T07:29:56.332Z,20.47
2016-08-31T07:30:56.323Z,20.43
2016-08-31T07:31:56.314Z,20.56
2016-08-31T07:32:56.282Z,20.65
2016-08-31T07:33:56.273Z,20.7
2016-08-31T07:34:56.250Z,20.75
2016-08-31T07:35:56.233Z,20.95
2016-08-31T07:36:56.217Z,20.99
2016-08-31T07:37:56.200Z,21.07
2016-08-31T07:38:56.215Z,21.12
2016-08-31T07:39:56.167Z,21.21
2016-08-31T07:40:56.153Z,21.32
2016-08-31T07:41:56.143Z,21.32
2016-08-31T07:42:56.119Z,21.36
2016-08-31T07:43:56.106Z,21.4
2016-08-31T07:44:56.094Z,21.45
2016-08-31T07:45:56.071Z,21.43
2016-08-31T07:46:56.057Z,21.48
2016-08-31T07:47:56.056Z,21.55
2016-08-31T07:48:56.027Z,21.58
2016-08-31T07:49:56.010Z,21.6
2016-08-31T07:50:55.994Z,21.69
2016-08-31T07:51:55.974Z,21.67
2016-08-31T07:52:55.962Z,21.64
2016-08-31T07:53:55.941Z,21.73
2016-08-31T07:54:55.925Z,21.72
2016-08-31T07:55:55.907Z,21.7
2016-08-31T07:56:55.892Z,21.82
2016-08-31T07:57:55.875Z,21.82
2016-08-31T07:58:55.867Z,21.88
2016-08-31T07:59:55.847Z,21.82
2016-08-31T08:00:55.823Z,21.85
2016-08-31T08:01:55.809Z,21.88
2016-08-31T08:02:56.520Z,21.92
2016-08-31T08:03:55.775Z,21.91
2016-08-31T08:04:55.758Z,21.91
2016-08-31T08:05:56.462Z,21.99
2016-08-31T08:06:55.727Z,22
2016-08-31T08:07:55.709Z,21.96
2016-08-31T08:08:55.715Z,22.02
2016-08-31T08:09:55.680Z,21.98
2016-08-31T08:10:55.653Z,22.1
2016-08-31T08:11:55.635Z,22.13
2016-08-31T08:12:55.621Z,22.14
2016-08-31T08:13:55.602Z,22.13
2016-08-31T08:14:55.591Z,22.11
2016-08-31T08:15:55.568Z,22.1
2016-08-31T08:16:55.551Z,22.23
2016-08-31T08:17:55.534Z,22.32
2016-08-31T08:18:55.517Z,22.26
2016-08-31T08:19:55.502Z,22.32
2016-08-31T08:20:55.483Z,22.35
2016-08-31T08:21:55.474Z,22.39
2016-08-31T08:22:55.447Z,22.48
2016-08-31T08:23:56.455Z,22.47
2016-08-31T08:24:55.415Z,22.45
2016-08-31T08:25:55.662Z,22.53
2016-08-31T08:26:55.378Z,22.47
2016-08-31T08:27:56.060Z,22.54
2016-08-31T08:28:55.347Z,22.55
2016-08-31T08:29:55.328Z,22.57
2016-08-31T08:30:55.314Z,22.59
2016-08-31T08:31:55.297Z,22.57
2016-08-31T08:32:55.281Z,22.54
2016-08-31T08:33:55.264Z,22.6
2016-08-31T08:34:55.243Z,22.69
2016-08-31T08:35:55.235Z,22.78
2016-08-31T08:36:55.215Z,22.75
2016-08-31T08:37:55.195Z,22.83
2016-08-31T08:38:55.180Z,22.83
2016-08-31T08:39:55.160Z,22.83
2016-08-31T08:40:55.146Z,22.81
2016-08-31T08:41:55.131Z,22.87
2016-08-31T08:42:55.109Z,22.87
2016-08-31T08:43:55.269Z,22.9
2016-08-31T08:44:55.078Z,22.93
2016-08-31T08:45:55.063Z,23
2016-08-31T08:46:55.047Z,23.06
2016-08-31T08:47:55.026Z,23
2016-08-31T08:48:55.012Z,22.94
2016-08-31T08:49:54.996Z,22.98
2016-08-31T08:50:54.980Z,23.02
2016-08-31T08:51:54.962Z,23
2016-08-31T08:52:54.945Z,23.13
2016-08-31T08:53:54.930Z,23.12
2016-08-31T08:54:54.910Z,23.25
2016-08-31T08:55:54.898Z,23.23
2016-08-31T08:56:54.878Z,23.28
2016-08-31T08:57:54.860Z,23.34
2016-08-31T08:58:54.872Z,23.41
2016-08-31T08:59:54.830Z,23.47
2016-08-31T09:00:54.814Z,23.5
2016-08-31T09:01:54.797Z,23.55
2016-08-31T09:02:54.780Z,23.61
2016-08-31T09:03:54.772Z,23.56
2016-08-31T09:04:54.749Z,23.62
2016-08-31T09:05:54.746Z,23.59
2016-08-31T09:06:54.731Z,23.62
2016-08-31T09:07:54.702Z,23.63
2016-08-31T09:08:54.685Z,23.61
2016-08-31T09:09:54.665Z,23.66
2016-08-31T09:10:54.653Z,23.68
2016-08-31T09:11:54.636Z,23.61
2016-08-31T09:12:54.620Z,23.66
2016-08-31T09:13:54.609Z,23.74
2016-08-31T09:14:55.280Z,23.84
2016-08-31T09:15:54.571Z,23.83
2016-08-31T09:16:54.557Z,23.92
2016-08-31T09:17:54.547Z,23.86
2016-08-31T09:18:54.526Z,23.93
2016-08-31T09:19:54.509Z,24.01
2016-08-31T09:20:54.491Z,24.06
2016-08-31T09:21:54.494Z,24.06
2016-08-31T09:22:54.461Z,24.16
2016-08-31T09:23:54.460Z,24.08
2016-08-31T09:24:54.437Z,24.17
2016-08-31T09:25:54.417Z,24.23
2016-08-31T09:26:54.407Z,24.23
2016-08-31T09:27:54.482Z,24.3
2016-08-31T09:28:54.369Z,24.32
2016-08-31T09:29:54.353Z,24.33
2016-08-31T09:30:54.338Z,24.4
2016-08-31T09:31:55.015Z,24.42
2016-08-31T09:32:54.304Z,24.53
2016-08-31T09:33:54.295Z,24.53
2016-08-31T09:34:54.274Z,24.48
2016-08-31T09:35:54.259Z,24.54
2016-08-31T09:36:54.245Z,24.55
2016-08-31T09:37:54.225Z,24.6
2016-08-31T09:38:54.220Z,24.6
2016-08-31T09:39:54.202Z,24.61
2016-08-31T09:40:54.187Z,24.63
2016-08-31T09:41:54.168Z,24.68
2016-08-31T09:42:54.165Z,24.66
2016-08-31T09:43:54.138Z,24.77
2016-08-31T09:44:54.125Z,24.78
2016-08-31T09:45:54.118Z,24.77
2016-08-31T09:46:54.096Z,24.78
2016-08-31T09:47:54.077Z,24.69
2016-08-31T09:48:54.059Z,24.74
2016-08-31T09:49:54.042Z,24.73
2016-08-31T09:50:54.090Z,24.86
2016-08-31T09:51:54.015Z,24.92
2016-08-31T09:52:54.000Z,24.85
2016-08-31T09:53:53.983Z,25.01
2016-08-31T09:54:53.968Z,25.04
2016-08-31T09:55:53.955Z,25.08
2016-08-31T09:56:53.938Z,25.13
2016-08-31T09:57:53.926Z,25.18
2016-08-31T09:58:53.910Z,25.16
2016-08-31T09:59:53.891Z,25.29
2016-08-31T10:00:53.879Z,25.35
2016-08-31T10:01:53.861Z,25.36
2016-08-31T10:02:53.849Z,25.38
2016-08-31T10:03:53.834Z,25.4
2016-08-31T10:04:53.820Z,25.44
2016-08-31T10:05:53.805Z,25.4
2016-08-31T10:06:53.788Z,25.41
2016-08-31T10:07:53.782Z,25.48
2016-08-31T10:08:53.758Z,25.43
2016-08-31T10:09:53.750Z,25.48
2016-08-31T10:10:53.737Z,25.53
2016-08-31T10:11:53.714Z,25.55
2016-08-31T10:12:53.702Z,25.6
2016-08-31T10:13:53.687Z,25.6
2016-08-31T10:14:53.676Z,25.6
2016-08-31T10:15:53.657Z,25.65
2016-08-31T10:16:53.644Z,25.7
2016-08-31T10:17:53.626Z,25.66
2016-08-31T10:18:53.614Z,25.68
2016-08-31T10:19:53.605Z,25.85
2016-08-31T10:20:53.585Z,25.8
2016-08-31T10:21:53.575Z,25.95
2016-08-31T10:22:53.554Z,25.91
2016-08-31T10:23:54.235Z,25.99
2016-08-31T10:24:53.527Z,26.09
2016-08-31T10:25:53.510Z,26.07
2016-08-31T10:26:53.499Z,26.25
2016-08-31T10:27:53.485Z,26.33
2016-08-31T10:28:53.469Z,26.36
2016-08-31T10:29:53.462Z,26.4
2016-08-31T10:30:53.454Z,26.48
2016-08-31T10:31:53.427Z,26.51
2016-08-31T10:32:53.414Z,26.47
2016-08-31T10:33:53.401Z,26.63
2016-08-31T10:34:53.389Z,26.55
2016-08-31T10:35:53.397Z,26.58
2016-08-31T10:36:53.364Z,26.58
2016-08-31T10:37:53.343Z,26.66
2016-08-31T10:38:53.337Z,26.73
2016-08-31T10:39:53.315Z,26.75
2016-08-31T10:40:53.305Z,26.68
2016-08-31T10:41:53.293Z,26.73
2016-08-31T10:42:53.298Z,26.74
2016-08-31T10:43:53.266Z,26.73
2016-08-31T10:44:54.277Z,26.66
2016-08-31T10:45:53.232Z,26.65
2016-08-31T10:46:53.225Z,26.75
2016-08-31T10:47:53.206Z,26.83
2016-08-31T10:48:53.192Z,26.81
2016-08-31T10:49:53.199Z,26.85
2016-08-31T10:50:53.165Z,26.8
2016-08-31T10:51:54.078Z,26.71
2016-08-31T10:52:53.141Z,26.73
2016-08-31T10:53:53.126Z,26.71
2016-08-31T10:54:53.113Z,26.88
2016-08-31T10:55:53.095Z,26.89
2016-08-31T10:56:53.085Z,26.9
2016-08-31T10:57:53.071Z,26.84
2016-08-31T10:58:53.057Z,26.92
2016-08-31T10:59:53.044Z,26.99
2016-08-31T11:00:53.035Z,26.92
2016-08-31T11:01:53.018Z,27
2016-08-31T11:02:53.014Z,26.96
2016-08-31T11:03:52.989Z,26.96
2016-08-31T11:04:52.974Z,26.97
2016-08-31T11:05:52.968Z,27.08
2016-08-31T11:06:52.948Z,27.07
2016-08-31T11:07:52.933Z,27
2016-08-31T11:08:52.922Z,27.03
2016-08-31T11:09:52.910Z,27.07
2016-08-31T11:10:52.891Z,27.03
2016-08-31T11:11:52.881Z,26.93
2016-08-31T11:12:52.867Z,26.96
2016-08-31T11:13:52.854Z,27.12
2016-08-31T11:14:52.840Z,27.07
2016-08-31T11:15:52.832Z,26.93
2016-08-31T11:16:52.813Z,27
2016-08-31T11:17:52.807Z,27.07
2016-08-31T11:18:52.783Z,27.07
2016-08-31T11:19:52.773Z,27.07
2016-08-31T11:20:52.760Z,27.14
2016-08-31T11:21:52.745Z,27.11
2016-08-31T11:22:52.746Z,27.07
2016-08-31T11:23:52.719Z,27.12
2016-08-31T11:24:52.706Z,27.14
2016-08-31T11:25:52.689Z,27.15
2016-08-31T11:26:52.679Z,27.11
2016-08-31T11:27:52.664Z,27.15
2016-08-31T11:28:52.649Z,27.22
2016-08-31T11:29:52.641Z,27.21
2016-08-31T11:30:53.337Z,27.18
2016-08-31T11:31:52.654Z,27.29
2016-08-31T11:32:52.612Z,27.18
2016-08-31T11:33:52.590Z,27.22
2016-08-31T11:34:52.567Z,27.15
2016-08-31T11:35:52.559Z,27.2
2016-08-31T11:36:52.550Z,27.25
2016-08-31T11:37:52.531Z,27.29
2016-08-31T11:38:52.516Z,27.36
2016-08-31T11:39:52.506Z,27.35
2016-08-31T11:40:52.491Z,27.35
2016-08-31T11:41:52.477Z,27.27
2016-08-31T11:42:52.465Z,27.26
2016-08-31T11:43:52.451Z,27.22
2016-08-31T11:44:52.437Z,27.36
2016-08-31T11:45:52.424Z,27.42
2016-08-31T11:46:52.411Z,27.42
2016-08-31T11:47:52.398Z,27.45
2016-08-31T11:48:52.382Z,27.52
2016-08-31T11:49:52.371Z,27.49
2016-08-31T11:50:52.357Z,27.55
2016-08-31T11:51:52.342Z,27.58
2016-08-31T11:52:52.331Z,27.63
2016-08-31T11:53:52.318Z,27.71
2016-08-31T11:54:52.308Z,27.75
2016-08-31T11:55:52.293Z,27.87
2016-08-31T11:56:52.285Z,27.93
2016-08-31T11:57:52.262Z,28
2016-08-31T11:58:52.253Z,28.05
2016-08-31T11:59:52.289Z,28
2016-08-31T12:00:52.231Z,28
2016-08-31T12:01:52.213Z,27.93
2016-08-31T12:02:52.201Z,28.02
2016-08-31T12:03:52.188Z,27.98
2016-08-31T12:04:52.172Z,27.95
2016-08-31T12:05:52.854Z,28.05
2016-08-31T12:06:52.147Z,28
2016-08-31T12:07:52.132Z,28
2016-08-31T12:08:52.123Z,27.92
2016-08-31T12:09:52.110Z,28
2016-08-31T12:10:52.096Z,27.96
2016-08-31T12:11:52.085Z,28.02
2016-08-31T12:12:52.071Z,28.02
2016-08-31T12:13:52.061Z,28.05
2016-08-31T12:14:52.050Z,28.07
2016-08-31T12:15:52.033Z,28.15
2016-08-31T12:16:52.020Z,28.2
2016-08-31T12:17:52.007Z,28.25
2016-08-31T12:18:51.995Z,28.35
2016-08-31T12:19:51.986Z,28.35
2016-08-31T12:20:51.968Z,28.39
2016-08-31T12:21:51.957Z,28.37
2016-08-31T12:22:51.943Z,28.38
2016-08-31T12:23:51.928Z,28.35
2016-08-31T12:24:51.917Z,28.44
2016-08-31T12:25:51.906Z,28.35
2016-08-31T12:26:51.894Z,28.41
2016-08-31T12:27:51.881Z,28.35
2016-08-31T12:28:51.869Z,28.33
2016-08-31T12:29:51.859Z,28.39
2016-08-31T12:30:51.841Z,28.48
2016-08-31T12:31:51.832Z,28.44
2016-08-31T12:32:51.817Z,28.52
2016-08-31T12:33:51.803Z,28.62
2016-08-31T12:34:51.801Z,28.7
2016-08-31T12:35:51.853Z,28.74
2016-08-31T12:36:52.087Z,28.69
2016-08-31T12:37:51.756Z,28.69
2016-08-31T12:38:52.439Z,28.7
2016-08-31T12:39:51.732Z,28.74
2016-08-31T12:40:51.719Z,28.85
2016-08-31T12:41:51.707Z,28.91
2016-08-31T12:42:51.694Z,28.93
2016-08-31T12:43:51.681Z,28.89
2016-08-31T12:44:51.670Z,28.93
2016-08-31T12:45:51.667Z,28.89
2016-08-31T12:46:51.686Z,28.81
2016-08-31T12:47:51.632Z,28.78
2016-08-31T12:48:51.621Z,28.69
2016-08-31T12:49:51.606Z,28.64
2016-08-31T12:50:51.596Z,28.66
2016-08-31T12:51:51.601Z,28.72
2016-08-31T12:52:51.569Z,28.72
2016-08-31T12:53:51.557Z,28.76
2016-08-31T12:55:46.365Z,28.75
2016-08-31T12:56:24.080Z,28.74